Time;durP1;ratioP1;P1;durP2;ratioP2;P2;SDS_P1;SDS_P2;PMS_P1;PMS_P2;Temp;Humidity;BMP_temperature;BMP_pressure;BME280_temperature;BME280_humidity;BME280_pressure;Samples;Min_cycle;Max_cycle;Signal;HPM_P1;HPM_P2
2022/09/29 00:00:22;;;;;;;129.73;39.00;;;4.60;99.90;;;;;;5017740;28;20041;-68
2022/09/29 00:02:48;;;;;;;108.63;37.40;;;4.70;99.90;;;;;;4998624;28;20084;-68
2022/09/29 00:05:15;;;;;;;119.28;39.35;;;4.80;99.90;;;;;;5021528;28;20479;-71
2022/09/29 00:07:42;;;;;;;121.95;39.72;;;4.80;99.90;;;;;;5012610;28;20407;-71
2022/09/29 00:10:08;;;;;;;98.50;31.50;;;4.80;99.90;;;;;;4998372;28;20049;-68
2022/09/29 00:12:35;;;;;;;102.78;32.05;;;4.80;99.90;;;;;;5020277;28;20068;-69
2022/09/29 00:15:03;;;;;;;96.55;34.05;;;4.70;99.90;;;;;;5014666;28;20040;-68
2022/09/29 00:17:29;;;;;;;103.65;30.98;;;4.70;99.90;;;;;;5017956;28;20051;-69
2022/09/29 00:19:56;;;;;;;88.13;31.13;;;4.60;99.90;;;;;;5020982;28;20068;-69
2022/09/29 00:22:23;;;;;;;88.55;33.03;;;4.40;99.90;;;;;;5016368;28;20140;-69
2022/09/29 00:24:49;;;;;;;106.18;31.92;;;4.40;99.90;;;;;;5016841;28;20037;-69
2022/09/29 00:27:17;;;;;;;97.25;33.83;;;4.30;99.90;;;;;;5017571;28;20064;-68
2022/09/29 00:29:45;;;;;;;112.50;34.50;;;4.20;99.90;;;;;;5010337;28;20510;-70
2022/09/29 00:32:12;;;;;;;87.50;34.03;;;4.20;99.90;;;;;;5024336;28;20484;-69
2022/09/29 00:34:38;;;;;;;93.68;33.85;;;4.20;99.90;;;;;;5021273;28;20278;-68
2022/09/29 00:37:05;;;;;;;96.60;35.25;;;4.40;99.90;;;;;;5020455;28;20534;-69
2022/09/29 00:39:32;;;;;;;102.95;33.55;;;4.40;99.90;;;;;;4989812;28;20048;-71
2022/09/29 00:41:59;;;;;;;94.80;33.80;;;4.30;99.90;;;;;;5018812;28;20047;-70
2022/09/29 00:45:03;;;;;;;83.95;30.95;;;4.30;99.90;;;;;;5008059;28;20063;-71
2022/09/29 00:47:32;;;;;;;97.93;33.70;;;4.10;99.90;;;;;;5003475;28;20395;-70
2022/09/29 00:50:08;;;;;;;92.00;32.65;;;3.90;99.90;;;;;;5003343;28;20515;-70
2022/09/29 00:52:39;;;;;;;92.82;32.90;;;3.80;99.90;;;;;;5013661;28;20029;-70
2022/09/29 00:55:30;;;;;;;84.82;32.40;;;3.70;99.90;;;;;;5016027;28;20044;-68
2022/09/29 00:58:15;;;;;;;90.10;32.90;;;3.80;99.90;;;;;;5021071;28;20056;-68
2022/09/29 01:00:42;;;;;;;97.53;32.97;;;3.90;99.90;;;;;;5016102;28;20053;-68
2022/09/29 01:03:13;;;;;;;91.35;33.55;;;3.80;99.90;;;;;;4994716;28;20060;-70
2022/09/29 01:05:48;;;;;;;97.13;34.28;;;3.80;99.90;;;;;;5017718;28;20471;-71
2022/09/29 01:08:38;;;;;;;112.85;33.33;;;3.80;99.90;;;;;;5066082;23;20048;-70
2022/09/29 01:11:05;;;;;;;88.80;32.65;;;3.70;99.90;;;;;;5031960;28;20494;-67
2022/09/29 01:13:34;;;;;;;88.90;31.73;;;3.70;99.90;;;;;;5039318;28;20037;-68
2022/09/29 01:16:01;;;;;;;90.78;31.30;;;3.70;99.90;;;;;;5040677;28;20052;-66
2022/09/29 01:18:29;;;;;;;106.63;33.72;;;3.80;99.90;;;;;;5045856;28;21627;-68
2022/09/29 01:21:08;;;;;;;83.60;32.88;;;3.60;99.90;;;;;;5040722;28;20048;-66
2022/09/29 01:23:43;;;;;;;98.72;33.45;;;3.50;99.90;;;;;;5040599;28;20043;-66
2022/09/29 01:26:16;;;;;;;89.40;32.92;;;3.40;99.90;;;;;;5041430;28;20620;-68
2022/09/29 01:29:02;;;;;;;97.53;33.08;;;3.30;99.90;;;;;;5041934;28;20041;-67
2022/09/29 01:31:47;;;;;;;91.70;31.25;;;3.30;99.90;;;;;;5037892;28;20033;-66
2022/09/29 01:34:14;;;;;;;73.65;31.88;;;3.20;99.90;;;;;;5031395;28;20130;-67
2022/09/29 01:37:06;;;;;;;91.28;32.85;;;3.40;99.90;;;;;;5040531;28;20033;-66
2022/09/29 01:39:42;;;;;;;99.95;34.67;;;3.40;99.90;;;;;;5039307;28;20049;-68
2022/09/29 01:42:18;;;;;;;98.45;32.42;;;3.40;99.90;;;;;;5040237;28;20041;-66
2022/09/29 01:45:11;;;;;;;124.10;37.25;;;3.40;99.90;;;;;;5021022;28;20040;-67
2022/09/29 01:47:43;;;;;;;95.82;31.80;;;3.20;99.90;;;;;;5041985;28;20043;-68
2022/09/29 01:50:31;;;;;;;108.55;34.63;;;3.20;99.90;;;;;;5038007;28;20047;-65
2022/09/29 01:53:06;;;;;;;114.10;34.60;;;3.20;99.90;;;;;;5047105;28;20045;-66
2022/09/29 01:55:40;;;;;;;129.80;36.50;;;3.00;99.90;;;;;;5037146;28;20139;-67
2022/09/29 01:58:13;;;;;;;210.40;42.20;;;3.10;99.90;;;;;;5024146;28;20046;-66
2022/09/29 02:00:47;;;;;;;79.80;30.20;;;3.10;99.90;;;;;;5035747;28;20045;-66
2022/09/29 02:03:23;;;;;;;81.60;31.10;;;3.10;99.90;;;;;;5020127;28;20121;-68
2022/09/29 02:05:53;;;;;;;91.63;31.40;;;3.10;99.90;;;;;;5041471;28;20144;-68
2022/09/29 02:08:32;;;;;;;84.40;32.60;;;3.10;99.90;;;;;;5037135;28;20041;-66
2022/09/29 02:11:11;;;;;;;90.68;32.22;;;3.00;99.90;;;;;;5042416;28;20513;-66
2022/09/29 02:13:49;;;;;;;85.13;29.45;;;2.90;99.90;;;;;;5039827;28;20055;-69
2022/09/29 02:16:20;;;;;;;77.88;32.03;;;2.90;99.90;;;;;;5038193;28;20044;-69
2022/09/29 02:18:55;;;;;;;71.28;28.73;;;2.80;99.90;;;;;;5043250;28;20041;-66
2022/09/29 02:21:26;;;;;;;86.68;31.20;;;2.80;99.90;;;;;;5036235;28;20411;-67
2022/09/29 02:23:54;;;;;;;96.45;33.45;;;2.90;99.90;;;;;;5048446;28;20033;-65
2022/09/29 02:26:24;;;;;;;84.63;32.10;;;2.90;99.90;;;;;;5040989;28;20179;-68
2022/09/29 02:28:51;;;;;;;85.80;32.15;;;3.10;99.90;;;;;;5044195;28;20048;-68
2022/09/29 02:31:18;;;;;;;103.97;33.90;;;3.20;99.90;;;;;;5024976;28;20081;-66
2022/09/29 02:33:45;;;;;;;87.93;32.15;;;3.20;99.90;;;;;;5039207;28;20414;-67
2022/09/29 02:36:33;;;;;;;108.70;33.55;;;3.20;99.90;;;;;;5042024;28;20630;-68
2022/09/29 02:39:34;;;;;;;96.57;31.30;;;3.40;99.90;;;;;;5038789;28;20049;-68
2022/09/29 02:42:19;;;;;;;93.00;31.63;;;3.50;99.90;;;;;;5041276;28;20041;-69
2022/09/29 02:44:59;;;;;;;96.38;32.55;;;3.50;99.90;;;;;;5039316;28;20051;-67
2022/09/29 02:47:48;;;;;;;103.82;30.55;;;3.50;99.90;;;;;;5053695;28;20067;-67
2022/09/29 02:50:27;;;;;;;101.78;32.65;;;3.50;99.90;;;;;;5041042;28;20415;-69
2022/09/29 02:53:03;;;;;;;98.28;31.20;;;3.40;99.90;;;;;;5040716;28;20546;-68
2022/09/29 02:55:57;;;;;;;107.05;30.88;;;3.50;99.90;;;;;;5043326;28;20041;-68
2022/09/29 02:58:36;;;;;;;134.07;35.35;;;3.40;99.90;;;;;;5042510;28;20526;-67
2022/09/29 03:01:04;;;;;;;112.47;31.10;;;3.30;99.90;;;;;;5039481;28;20040;-69
2022/09/29 03:03:31;;;;;;;114.55;32.30;;;3.50;99.90;;;;;;5041363;28;20446;-67
2022/09/29 03:05:58;;;;;;;118.18;32.67;;;3.50;99.90;;;;;;5036365;28;20041;-68
2022/09/29 03:08:24;;;;;;;95.18;33.20;;;3.60;99.90;;;;;;5042416;28;20037;-67
2022/09/29 03:10:51;;;;;;;150.88;37.22;;;3.60;99.90;;;;;;5036675;28;20994;-69
2022/09/29 03:13:18;;;;;;;99.35;30.55;;;3.60;99.90;;;;;;5033261;28;20033;-68
2022/09/29 03:15:45;;;;;;;109.57;31.27;;;3.60;99.90;;;;;;5039998;28;20036;-68
2022/09/29 03:18:11;;;;;;;107.63;32.55;;;3.60;99.90;;;;;;5042258;28;20479;-69
2022/09/29 03:20:38;;;;;;;103.28;30.30;;;3.70;99.90;;;;;;5046215;28;20470;-68
2022/09/29 03:23:05;;;;;;;92.47;29.25;;;3.70;99.90;;;;;;5042110;28;20037;-67
2022/09/29 03:25:31;;;;;;;113.05;32.40;;;3.80;99.90;;;;;;5041333;28;20133;-68
2022/09/29 03:27:58;;;;;;;112.45;33.13;;;3.90;99.90;;;;;;5040523;28;20045;-69
2022/09/29 03:30:25;;;;;;;113.35;31.50;;;3.90;99.90;;;;;;5037737;28;20521;-68
2022/09/29 03:32:52;;;;;;;107.25;33.30;;;4.00;99.90;;;;;;5040038;28;20048;-69
2022/09/29 03:35:19;;;;;;;96.72;32.70;;;4.10;99.90;;;;;;5040631;28;20037;-67
2022/09/29 03:37:45;;;;;;;107.15;33.13;;;4.30;99.90;;;;;;5030224;28;20430;-67
2022/09/29 03:40:12;;;;;;;132.60;35.20;;;4.30;99.90;;;;;;5038337;28;20037;-68
2022/09/29 03:42:39;;;;;;;112.32;34.20;;;4.30;99.90;;;;;;5039600;28;20501;-68
2022/09/29 03:45:06;;;;;;;119.28;32.92;;;4.30;99.90;;;;;;5041184;28;20044;-66
2022/09/29 03:47:32;;;;;;;104.57;34.10;;;4.40;99.90;;;;;;5041271;28;20044;-68
2022/09/29 03:49:59;;;;;;;95.68;33.95;;;4.50;99.90;;;;;;5032429;28;20049;-67
2022/09/29 03:52:26;;;;;;;94.50;32.25;;;4.60;99.90;;;;;;5036010;28;20128;-67
2022/09/29 03:54:52;;;;;;;96.80;31.80;;;4.60;99.90;;;;;;5039034;28;20036;-66
2022/09/29 03:57:19;;;;;;;85.63;32.53;;;4.60;99.90;;;;;;5040788;28;20855;-66
2022/09/29 03:59:46;;;;;;;82.30;31.42;;;4.60;99.90;;;;;;5039699;28;20047;-65
2022/09/29 04:02:13;;;;;;;89.68;31.75;;;4.70;99.90;;;;;;5028674;28;20662;-67
2022/09/29 04:04:40;;;;;;;104.40;34.47;;;4.70;99.90;;;;;;5039094;28;20140;-66
2022/09/29 04:07:06;;;;;;;99.85;36.42;;;4.60;99.90;;;;;;5040405;28;20051;-67
2022/09/29 04:09:33;;;;;;;106.97;32.53;;;4.60;99.90;;;;;;5041611;28;20040;-70
2022/09/29 04:12:00;;;;;;;104.40;34.13;;;4.60;99.90;;;;;;5045381;28;20039;-71
2022/09/29 04:14:26;;;;;;;94.97;33.97;;;4.70;99.90;;;;;;5041542;28;20115;-72
2022/09/29 04:16:53;;;;;;;103.90;35.08;;;4.90;99.90;;;;;;5039667;28;20036;-70
2022/09/29 04:19:20;;;;;;;94.22;32.55;;;4.80;99.90;;;;;;5041602;28;20044;-71
2022/09/29 04:21:46;;;;;;;108.80;32.90;;;4.90;99.90;;;;;;5034618;28;20049;-72
2022/09/29 04:24:13;;;;;;;85.45;31.70;;;4.90;99.90;;;;;;5041135;28;20514;-71
2022/09/29 04:26:40;;;;;;;97.28;32.78;;;4.90;99.90;;;;;;5023419;28;20069;-71
2022/09/29 04:29:06;;;;;;;100.68;34.17;;;5.10;99.90;;;;;;5049045;28;20060;-70
2022/09/29 04:31:33;;;;;;;96.20;33.45;;;5.00;99.90;;;;;;5050158;28;20071;-70
2022/09/29 04:34:00;;;;;;;88.18;33.28;;;5.10;99.90;;;;;;5038325;28;20037;-71
2022/09/29 04:36:27;;;;;;;98.78;33.10;;;5.10;99.90;;;;;;5033840;28;20063;-70
2022/09/29 04:38:53;;;;;;;100.55;34.25;;;5.20;99.90;;;;;;5039252;28;20045;-70
2022/09/29 04:41:20;;;;;;;108.28;35.55;;;5.30;99.90;;;;;;5040076;28;20127;-71
2022/09/29 04:43:47;;;;;;;103.20;35.45;;;5.40;99.90;;;;;;5037027;28;20068;-70
2022/09/29 04:46:14;;;;;;;91.35;34.47;;;5.40;99.90;;;;;;5032931;28;20045;-72
2022/09/29 04:48:41;;;;;;;101.68;35.03;;;5.40;99.90;;;;;;5038632;28;20041;-70
2022/09/29 04:51:09;;;;;;;102.38;34.05;;;5.50;99.90;;;;;;5039993;28;20037;-69
2022/09/29 04:53:36;;;;;;;106.22;35.30;;;5.50;99.90;;;;;;5040106;28;20033;-71
2022/09/29 04:56:07;;;;;;;102.82;33.38;;;5.70;99.90;;;;;;5039603;28;20124;-70
2022/09/29 04:58:34;;;;;;;105.60;35.17;;;5.60;99.90;;;;;;5040860;28;20040;-72
2022/09/29 05:01:11;;;;;;;91.13;33.05;;;5.60;99.90;;;;;;5037534;28;20048;-70
2022/09/29 05:03:38;;;;;;;100.75;33.45;;;5.60;99.90;;;;;;5035814;28;20148;-72
2022/09/29 05:06:07;;;;;;;98.53;35.05;;;5.70;99.90;;;;;;5039555;28;20530;-70
2022/09/29 05:08:34;;;;;;;99.57;35.22;;;5.70;99.90;;;;;;5036882;28;20059;-70
2022/09/29 05:11:06;;;;;;;117.07;35.65;;;5.60;99.90;;;;;;5020759;28;20209;-72
2022/09/29 05:13:33;;;;;;;102.93;35.85;;;5.70;99.90;;;;;;5037880;28;20037;-71
2022/09/29 05:16:00;;;;;;;104.40;35.15;;;5.60;99.90;;;;;;5019432;28;20115;-70
2022/09/29 05:18:27;;;;;;;109.50;36.97;;;5.70;99.90;;;;;;5039486;28;20045;-72
2022/09/29 05:20:54;;;;;;;92.82;34.58;;;5.80;99.90;;;;;;5037955;28;20059;-71
2022/09/29 05:23:41;;;;;;;98.53;36.05;;;5.80;99.90;;;;;;5038611;28;20605;-71
2022/09/29 05:26:09;;;;;;;103.80;35.13;;;5.90;99.90;;;;;;5040098;28;20041;-70
2022/09/29 05:28:38;;;;;;;111.15;36.72;;;5.90;99.90;;;;;;5039718;28;20337;-71
2022/09/29 05:31:06;;;;;;;112.32;37.10;;;5.90;99.90;;;;;;5032863;28;20043;-69
2022/09/29 05:33:34;;;;;;;108.15;37.35;;;5.90;99.90;;;;;;5040957;28;20045;-71
2022/09/29 05:36:06;;;;;;;110.88;36.45;;;6.00;99.90;;;;;;5034045;28;20090;-72
2022/09/29 05:38:34;;;;;;;103.57;40.05;;;6.00;99.90;;;;;;5040177;28;20045;-71
2022/09/29 05:41:05;;;;;;;101.00;40.85;;;6.00;99.90;;;;;;5023687;28;20043;-72
2022/09/29 05:43:32;;;;;;;116.53;40.78;;;6.10;99.90;;;;;;5039282;28;20049;-70
2022/09/29 05:46:09;;;;;;;119.20;45.58;;;6.20;99.90;;;;;;5037599;28;20044;-71
2022/09/29 05:48:36;;;;;;;124.25;47.08;;;6.20;99.90;;;;;;5033012;28;20041;-72
2022/09/29 05:51:09;;;;;;;152.00;59.55;;;6.30;99.90;;;;;;5034274;28;21421;-71
2022/09/29 05:53:36;;;;;;;115.72;48.88;;;6.30;99.90;;;;;;5036044;28;20037;-72
2022/09/29 05:56:07;;;;;;;112.38;46.80;;;6.30;99.90;;;;;;5021516;28;20975;-71
2022/09/29 05:58:35;;;;;;;124.38;49.10;;;6.20;99.90;;;;;;5038894;28;20359;-72
2022/09/29 06:01:10;;;;;;;119.07;48.75;;;6.30;99.90;;;;;;5038969;28;20205;-72
2022/09/29 06:03:37;;;;;;;;;;;6.20;99.90;;;;;;5041330;28;20048;-70
2022/09/29 06:06:09;;;;;;;99.43;41.22;;;6.30;99.90;;;;;;5039834;28;19921;-74
2022/09/29 06:08:36;;;;;;;104.65;41.95;;;6.10;99.90;;;;;;5039317;28;20045;-71
2022/09/29 06:11:09;;;;;;;107.97;39.85;;;6.30;99.90;;;;;;5025214;28;20051;-71
2022/09/29 06:13:39;;;;;;;108.13;40.35;;;6.30;99.90;;;;;;5040841;28;20041;-69
2022/09/29 06:16:07;;;;;;;98.95;38.38;;;6.30;99.90;;;;;;5038251;28;20128;-71
2022/09/29 06:18:34;;;;;;;95.05;38.20;;;6.30;99.90;;;;;;5044076;28;20037;-71
2022/09/29 06:21:05;;;;;;;103.30;38.97;;;6.50;99.90;;;;;;5035022;28;20045;-70
2022/09/29 06:23:32;;;;;;;91.75;37.70;;;6.70;99.90;;;;;;5042008;28;20048;-70
2022/09/29 06:26:03;;;;;;;102.57;40.08;;;6.70;99.90;;;;;;5040863;28;20060;-72
2022/09/29 06:28:48;;;;;;;96.80;38.35;;;6.70;99.90;;;;;;5040071;28;20053;-69
2022/09/29 06:31:18;;;;;;;99.13;39.10;;;6.80;99.90;;;;;;5040323;28;20061;-69
2022/09/29 06:33:45;;;;;;;96.50;40.53;;;6.90;99.90;;;;;;5038572;28;20530;-73
2022/09/29 06:39:14;;;;;;;98.10;42.72;;;7.10;99.90;;;;;;5040132;28;20037;-70
2022/09/29 06:41:47;;;;;;;94.90;40.38;;;7.10;99.90;;;;;;5046651;28;20126;-70
2022/09/29 06:44:14;;;;;;;90.75;39.88;;;7.10;99.90;;;;;;5038848;28;20167;-70
2022/09/29 06:46:41;;;;;;;74.72;34.22;;;7.20;99.90;;;;;;5039156;28;20453;-70
2022/09/29 06:49:09;;;;;;;79.10;33.72;;;7.20;99.90;;;;;;5041796;28;20059;-70
2022/09/29 06:51:36;;;;;;;81.07;34.17;;;7.10;99.90;;;;;;5038574;28;20051;-70
2022/09/29 06:54:29;;;;;;;;;;;7.00;99.90;;;;;;5030927;28;20060;-70
2022/09/29 06:56:56;;;;;;;71.88;34.85;;;7.10;99.90;;;;;;5037824;28;19960;-70
2022/09/29 06:59:23;;;;;;;71.45;33.58;;;7.40;99.90;;;;;;5033374;28;20037;-69
2022/09/29 07:01:49;;;;;;;77.10;33.90;;;7.60;99.90;;;;;;5044271;28;20077;-70
2022/09/29 07:04:19;;;;;;;72.78;34.55;;;7.60;99.90;;;;;;5024571;28;20075;-70
2022/09/29 07:06:47;;;;;;;65.55;33.90;;;7.70;99.90;;;;;;5127686;22;20049;-74
2022/09/29 07:09:16;;;;;;;85.35;42.78;;;7.80;99.90;;;;;;6051356;23;20067;-74
2022/09/29 07:11:46;;;;;;;85.20;45.25;;;8.00;99.90;;;;;;6039160;23;20494;-74
2022/09/29 07:14:14;;;;;;;71.00;40.10;;;8.20;99.90;;;;;;6051887;23;20034;-74
2022/09/29 07:16:41;;;;;;;78.22;38.65;;;8.20;99.90;;;;;;6071917;23;20037;-74
2022/09/29 07:19:09;;;;;;;68.72;38.42;;;8.30;99.90;;;;;;6066571;23;20465;-75
2022/09/29 07:21:35;;;;;;;56.78;33.90;;;8.30;99.90;;;;;;6035787;23;20043;-74
2022/09/29 07:24:02;;;;;;;62.72;34.78;;;8.30;99.90;;;;;;6031772;23;20090;-74
2022/09/29 07:26:29;;;;;;;72.13;38.38;;;8.40;99.90;;;;;;6057552;23;20044;-75
2022/09/29 07:28:56;;;;;;;59.35;35.17;;;8.40;99.90;;;;;;6062128;23;20131;-74
2022/09/29 07:31:24;;;;;;;64.25;36.75;;;8.40;99.90;;;;;;6036101;23;20032;-76
2022/09/29 07:33:51;;;;;;;59.58;36.20;;;8.50;99.90;;;;;;6048406;23;20043;-76
2022/09/29 07:36:19;;;;;;;61.60;37.90;;;8.50;99.90;;;;;;6028704;23;20075;-74
2022/09/29 07:38:50;;;;;;;61.55;38.60;;;8.60;99.90;;;;;;6047558;23;20035;-74
2022/09/29 07:41:19;;;;;;;63.45;37.45;;;8.70;99.90;;;;;;6045029;23;20288;-74
2022/09/29 07:43:46;;;;;;;52.55;36.20;;;8.80;99.90;;;;;;6058544;23;20060;-74
2022/09/29 07:46:13;;;;;;;56.50;36.20;;;9.00;99.90;;;;;;6042200;23;20036;-74
2022/09/29 07:48:40;;;;;;;55.67;36.50;;;9.00;99.90;;;;;;6048575;23;20028;-74
2022/09/29 07:51:12;;;;;;;59.05;37.42;;;9.00;99.90;;;;;;6043969;23;20017;-74
2022/09/29 07:53:40;;;;;;;52.53;35.30;;;9.10;99.90;;;;;;6057234;23;20039;-74
2022/09/29 07:56:18;;;;;;;45.28;34.15;;;9.40;99.90;;;;;;6039110;23;20482;-74
2022/09/29 07:58:46;;;;;;;38.13;29.58;;;9.80;99.90;;;;;;6032707;23;20134;-75
2022/09/29 08:01:14;;;;;;;38.10;29.85;;;10.20;99.90;;;;;;6056738;23;20056;-75
2022/09/29 08:03:50;;;;;;;35.20;29.98;;;10.40;99.90;;;;;;6027873;23;20119;-76
2022/09/29 08:06:18;;;;;;;45.70;29.13;;;10.60;99.90;;;;;;6052987;23;20375;-76
2022/09/29 08:08:46;;;;;;;58.10;31.08;;;10.80;99.90;;;;;;6018164;23;20067;-75
2022/09/29 08:11:29;;;;;;;121.47;38.38;;;10.90;99.90;;;;;;6040919;23;20039;-76
2022/09/29 08:13:59;;;;;;;36.95;28.85;;;11.10;99.90;;;;;;6058770;23;20418;-76
2022/09/29 08:16:26;;;;;;;38.55;31.65;;;11.40;99.90;;;;;;6033588;23;20028;-76
2022/09/29 08:18:53;;;;;;;35.83;32.28;;;11.50;99.90;;;;;;6050452;23;20032;-75
2022/09/29 08:21:20;;;;;;;37.60;34.03;;;11.70;99.90;;;;;;6045645;23;20514;-76
2022/09/29 08:23:48;;;;;;;37.70;34.17;;;11.70;99.90;;;;;;6039993;23;20063;-76
2022/09/29 08:26:17;;;;;;;37.03;33.65;;;11.70;99.90;;;;;;6056992;23;20246;-75
2022/09/29 08:28:47;;;;;;;36.13;32.88;;;11.70;99.90;;;;;;6051181;23;20035;-76
2022/09/29 08:31:28;;;;;;;38.75;35.17;;;11.90;99.90;;;;;;6045002;23;20078;-75
2022/09/29 08:34:00;;;;;;;38.85;35.05;;;12.00;99.90;;;;;;6047375;23;20119;-76
2022/09/29 08:36:26;;;;;;;37.47;33.72;;;11.90;99.90;;;;;;6062578;23;20036;-76
2022/09/29 08:38:55;;;;;;;38.65;34.67;;;12.00;99.90;;;;;;6039644;23;20036;-73
2022/09/29 08:41:41;;;;;;;38.97;35.42;;;11.90;99.90;;;;;;6038875;23;20040;-73
2022/09/29 08:44:23;;;;;;;36.30;33.30;;;11.70;99.90;;;;;;6045359;23;20028;-74
2022/09/29 08:47:12;;;;;;;38.13;34.15;;;11.60;99.90;;;;;;6069455;23;20279;-74
2022/09/29 08:49:44;;;;;;;37.78;34.35;;;11.80;99.90;;;;;;6023179;23;20064;-74
2022/09/29 08:52:33;;;;;;;38.40;34.90;;;12.00;99.90;;;;;;6023040;23;20116;-74
2022/09/29 08:55:16;;;;;;;37.40;34.08;;;12.40;99.90;;;;;;6023259;23;20452;-73
2022/09/29 08:57:57;;;;;;;36.92;33.70;;;12.70;99.90;;;;;;6024460;23;20167;-74
2022/09/29 09:01:08;;;;;;;39.35;36.13;;;12.80;99.90;;;;;;6045439;23;20037;-74
2022/09/29 09:04:02;;;;;;;41.25;37.65;;;12.80;99.90;;;;;;6032476;23;20266;-74
2022/09/29 09:06:32;;;;;;;39.92;36.63;;;12.40;99.90;;;;;;6063629;23;20785;-74
2022/09/29 09:09:21;;;;;;;37.75;34.42;;;12.00;99.90;;;;;;6036675;23;20034;-73
2022/09/29 09:12:20;;;;;;;34.63;31.60;;;11.90;99.90;;;;;;6033200;23;20052;-73
2022/09/29 09:15:02;;;;;;;34.85;32.05;;;12.00;99.90;;;;;;6005128;23;20115;-73
2022/09/29 09:17:48;;;;;;;36.80;33.33;;;12.20;99.90;;;;;;6025896;23;20068;-73
2022/09/29 09:20:40;;;;;;;34.72;32.03;;;12.60;99.90;;;;;;6045383;23;20067;-73
2022/09/29 09:23:12;;;;;;;36.58;33.65;;;12.80;99.90;;;;;;6045701;23;20430;-73
2022/09/29 09:25:53;;;;;;;38.42;35.53;;;13.30;99.90;;;;;;6066949;23;20040;-73
2022/09/29 09:28:28;;;;;;;40.85;37.63;;;13.50;99.90;;;;;;6042120;23;20036;-73
2022/09/29 09:31:25;;;;;;;38.17;34.90;;;13.60;99.90;;;;;;6055744;23;20376;-73
2022/09/29 09:33:55;;;;;;;37.95;34.80;;;13.60;99.90;;;;;;6052888;23;20033;-73
2022/09/29 09:36:55;;;;;;;39.67;36.50;;;13.80;99.90;;;;;;6030061;23;20577;-73
2022/09/29 09:39:56;;;;;;;37.95;34.90;;;13.90;99.90;;;;;;6071470;23;20074;-73
2022/09/29 09:42:29;;;;;;;38.38;35.47;;;13.70;99.90;;;;;;6051172;23;20443;-73
2022/09/29 09:45:01;;;;;;;36.75;34.05;;;13.60;99.90;;;;;;6039970;23;20219;-73
2022/09/29 09:47:32;;;;;;;40.83;37.47;;;13.50;99.90;;;;;;6048499;23;20039;-73
2022/09/29 09:50:15;;;;;;;39.60;36.00;;;13.50;99.90;;;;;;6047527;23;20038;-73
2022/09/29 09:52:50;;;;;;;40.88;36.85;;;13.30;99.90;;;;;;6063174;23;20067;-71
2022/09/29 09:55:23;;;;;;;37.83;34.80;;;13.30;99.90;;;;;;6056535;23;20052;-71
2022/09/29 09:58:20;;;;;;;38.53;35.30;;;13.70;99.90;;;;;;6035403;23;20043;-71
2022/09/29 10:01:00;;;;;;;37.72;34.55;;;13.90;99.90;;;;;;6059002;23;20024;-71
2022/09/29 10:03:28;;;;;;;35.70;33.05;;;13.90;99.90;;;;;;6062810;23;20064;-73
2022/09/29 10:05:55;;;;;;;36.70;34.10;;;13.90;99.90;;;;;;6044702;23;20028;-74
2022/09/29 10:08:26;;;;;;;37.17;34.25;;;14.20;99.90;;;;;;6057440;23;20358;-74
2022/09/29 10:10:54;;;;;;;34.88;32.20;;;14.60;99.90;;;;;;6077405;23;20016;-74
2022/09/29 10:13:27;;;;;;;35.83;33.13;;;14.80;99.90;;;;;;6074172;23;20021;-75
2022/09/29 10:16:09;;;;;;;33.97;31.55;;;15.00;99.90;;;;;;6093550;23;20142;-76
2022/09/29 10:18:40;;;;;;;32.25;29.95;;;15.10;99.90;;;;;;6066235;23;20036;-74
2022/09/29 10:21:35;;;;;;;32.67;30.42;;;15.10;99.90;;;;;;6081257;23;20079;-73
2022/09/29 10:24:05;;;;;;;31.63;29.42;;;15.20;99.90;;;;;;6071679;23;20050;-74
2022/09/29 10:26:47;;;;;;;33.25;30.83;;;15.10;99.90;;;;;;6061766;23;20093;-75
2022/09/29 10:29:37;;;;;;;31.70;29.40;;;15.40;99.90;;;;;;6045637;23;20047;-76
2022/09/29 10:32:21;;;;;;;32.03;29.63;;;15.40;99.90;;;;;;6055443;23;20668;-76
2022/09/29 10:34:53;;;;;;;33.13;30.55;;;15.40;99.90;;;;;;6064798;23;20029;-75
2022/09/29 10:37:46;;;;;;;33.85;31.17;;;15.50;99.90;;;;;;6056493;23;20112;-75
2022/09/29 10:40:22;;;;;;;33.47;30.73;;;15.60;99.90;;;;;;6058188;23;20032;-75
2022/09/29 10:42:50;;;;;;;33.83;31.33;;;15.70;99.90;;;;;;6043185;23;20036;-75
2022/09/29 10:45:46;;;;;;;31.52;29.23;;;15.80;99.90;;;;;;6065378;23;20508;-75
2022/09/29 10:48:14;;;;;;;34.72;32.28;;;15.20;99.90;;;;;;6065180;23;20033;-75
2022/09/29 10:50:49;;;;;;;36.40;33.40;;;14.40;99.90;;;;;;6055138;23;20040;-74
2022/09/29 10:53:35;;;;;;;;;;;14.00;99.90;;;;;;6035794;23;20502;-74
2022/09/29 10:56:21;;;;;;;33.10;30.65;;;13.90;99.90;;;;;;6030246;23;19916;-75
2022/09/29 10:58:54;;;;;;;29.67;27.58;;;13.90;99.90;;;;;;6059061;23;20446;-75
2022/09/29 11:01:42;;;;;;;28.73;26.40;;;13.80;99.90;;;;;;6051581;23;20719;-75
2022/09/29 11:04:33;;;;;;;31.80;29.50;;;14.00;99.90;;;;;;6060968;23;20037;-75
2022/09/29 11:07:09;;;;;;;28.75;26.70;;;14.40;99.90;;;;;;6046718;23;20114;-75
2022/09/29 11:09:41;;;;;;;28.95;27.15;;;14.50;99.90;;;;;;6033944;23;20040;-74
2022/09/29 11:12:38;;;;;;;29.25;27.15;;;14.80;99.90;;;;;;6034279;23;20030;-74
2022/09/29 11:15:23;;;;;;;28.67;26.45;;;15.00;99.90;;;;;;6043345;23;20059;-74
2022/09/29 11:17:51;;;;;;;29.52;27.52;;;14.90;99.90;;;;;;6039407;23;20411;-74
2022/09/29 11:20:20;;;;;;;25.50;23.77;;;15.30;99.90;;;;;;6026874;23;20044;-74
2022/09/29 11:23:12;;;;;;;25.10;23.40;;;15.20;99.90;;;;;;6044314;23;20111;-74
2022/09/29 11:26:00;;;;;;;28.83;26.92;;;14.70;99.90;;;;;;6034454;23;20047;-75
2022/09/29 11:28:45;;;;;;;29.15;27.25;;;14.70;99.90;;;;;;6025464;23;20501;-74
2022/09/29 11:31:19;;;;;;;30.30;28.27;;;14.80;99.90;;;;;;6056890;23;20037;-74
2022/09/29 11:34:18;;;;;;;28.40;26.55;;;14.90;99.90;;;;;;6061448;23;20032;-75
2022/09/29 11:37:11;;;;;;;26.70;24.90;;;14.90;99.90;;;;;;6058326;23;20127;-75
2022/09/29 11:39:56;;;;;;;29.88;27.50;;;15.10;99.90;;;;;;6040328;23;20036;-75
2022/09/29 11:42:32;;;;;;;28.23;26.13;;;15.20;99.90;;;;;;6046082;23;20127;-75
2022/09/29 11:45:01;;;;;;;27.80;25.75;;;15.40;99.90;;;;;;6069819;23;20028;-76
2022/09/29 11:47:57;;;;;;;28.15;26.35;;;15.40;99.90;;;;;;6034507;23;20055;-75
2022/09/29 11:50:54;;;;;;;29.00;26.50;;;15.60;99.90;;;;;;6047483;23;20054;-75
2022/09/29 11:53:49;;;;;;;28.38;26.15;;;15.60;99.90;;;;;;6046395;23;20055;-75
2022/09/29 11:56:21;;;;;;;26.33;24.63;;;15.90;99.90;;;;;;6029098;23;20021;-75
2022/09/29 11:59:09;;;;;;;26.65;24.75;;;15.80;99.90;;;;;;6041798;23;20032;-75
2022/09/29 12:01:51;;;;;;;26.52;24.75;;;15.80;99.90;;;;;;6057681;23;20032;-76
2022/09/29 12:04:34;;;;;;;25.98;24.33;;;15.80;99.90;;;;;;6046841;23;20407;-75
2022/09/29 12:07:28;;;;;;;25.98;24.27;;;15.80;99.90;;;;;;6044134;23;20037;-75
2022/09/29 12:10:13;;;;;;;25.92;24.23;;;15.70;99.90;;;;;;6017013;23;20094;-76
2022/09/29 12:12:44;;;;;;;24.52;23.08;;;15.70;99.90;;;;;;6063389;23;20531;-75
2022/09/29 12:15:16;;;;;;;25.83;24.10;;;15.80;99.90;;;;;;6044386;23;20539;-75
2022/09/29 12:17:54;;;;;;;25.00;23.40;;;15.60;99.90;;;;;;6045224;23;20195;-75
2022/09/29 12:20:26;;;;;;;26.65;24.65;;;15.70;99.90;;;;;;6059608;23;20094;-75
2022/09/29 12:22:56;;;;;;;26.25;24.52;;;15.50;99.90;;;;;;6045352;23;20054;-75
2022/09/29 12:25:28;;;;;;;26.17;24.40;;;15.60;99.90;;;;;;6061640;23;20032;-75
2022/09/29 12:28:18;;;;;;;26.60;24.90;;;16.00;99.90;;;;;;6045437;23;20028;-75
2022/09/29 12:30:56;;;;;;;26.48;24.83;;;15.50;99.90;;;;;;6056185;23;20032;-76
2022/09/29 12:33:31;;;;;;;26.55;24.77;;;15.50;99.90;;;;;;6031399;23;20475;-74
2022/09/29 12:36:44;;;;;;;25.25;23.67;;;15.50;99.90;;;;;;6043491;23;20028;-75
2022/09/29 12:39:35;;;;;;;26.00;24.33;;;15.70;99.90;;;;;;6055000;23;20042;-75
2022/09/29 12:42:39;;;;;;;26.48;24.80;;;15.70;99.90;;;;;;6064477;23;20146;-74
2022/09/29 12:45:47;;;;;;;27.80;26.00;;;15.40;99.90;;;;;;6046195;23;20093;-74
2022/09/29 12:48:42;;;;;;;26.48;24.67;;;15.20;99.90;;;;;;6050443;23;20206;-75
2022/09/29 12:51:21;;;;;;;;;;;14.90;99.90;;;;;;5991357;23;20307;-74
2022/09/29 12:54:20;;;;;;;28.63;26.83;;;14.70;99.90;;;;;;6046448;23;19919;-75
2022/09/29 12:56:59;;;;;;;27.98;25.83;;;14.50;99.90;;;;;;6056535;23;20032;-75
2022/09/29 12:59:31;;;;;;;28.58;26.90;;;14.40;99.90;;;;;;6062349;23;20040;-74
2022/09/29 13:02:04;;;;;;;25.85;24.27;;;14.10;99.90;;;;;;6061167;23;20550;-75
2022/09/29 13:05:07;;;;;;;28.00;26.20;;;13.90;99.90;;;;;;6062132;23;20044;-74
2022/09/29 13:07:45;;;;;;;27.27;25.47;;;14.20;99.90;;;;;;5808418;23;20045;-72
2022/09/29 13:10:39;;;;;;;26.40;24.73;;;14.30;99.90;;;;;;5025350;28;20051;-72